Weather at Sallanches Airport

Public forecast

Using degrees Celsius for public forecast. Weather courtesy of forecast.io.

Closest aviation weather report (METAR) to Sallanches Airport

Closest report is Annecy-Haute-Savoie-Mont Blanc Airport, 22.3 nm (41.3 km) W. Retrieved 2020/09/22 14:00 UTC (10 minutes ago):

LFLP 221400Z AUTO 24007KT 200V280 9999 FEW038/// SCT060/// BKN120/// ///CB 23/13 Q1012 TEMPO 23015G25KT 3000 TSRA

Closest aviation forecast (TAF) to Sallanches Airport

Closest forecast is Annecy-Haute-Savoie-Mont Blanc Airport, 22.3 nm (41.3 km) W. Retrieved 2020/09/22 15:00 UTC (0 seconds ago):

TAF LFLP 221400Z 2215/2315 21005KT 9999 FEW038 SCT060 BKN120 TEMPO 2215/2220 4000 SHRA SCT035TCU PROB30 TEMPO 2215/2220 23015G25KT 3000 TSRA BKN030CB TEMPO 2220/2305 2500 SHRA BKN014 FEW025CB PROB30 2220/2304 TSRA TEMPO 2305/2308 4000 BR BKN008